Atlantic - Newfoundland: Past 24 Hour Conditions

 

Nickerson Bank - 44251

10:00 PM ADT 31 July 2015Buoy position: 46.45N 53.38W
Disclaimer

This table is a summary of hourly weather conditions for the past 24 hours.
Please note that these observations might not always be representative of weather conditions over their associated marine area.

Date / Time
(ADT)
Wind(knots) Wave height(m) Wave period(s) Pressure(kPa) Air tempC) Water tempC)
31 July 2015
22:00 E 4 gust 6 1.1 8.0 101.4 11 13
21:00 SW 2 gust 4 1.0 8.0 101.4 11 13
20:00 WSW 8 gust 8 1.0 8.0 101.3 12 13
19:00 SW 8 gust 10 1.0 8.0 101.3 12 13
18:00 WSW 8 gust 12 1.0 8.0 101.3 12 13
17:00 WSW 8 gust 10 1.1 8.0 101.3 12 13
16:00 W 8 gust 12 1.1 8.0 101.3 12 13
15:00 W 10 gust 12 1.1 9.0 101.3 12 13
14:00 W 10 gust 12 1.1 8.0 101.2 12 13
13:00 WSW 12 gust 14 1.2 8.0 101.3 11 13
12:00 W 10 gust 12 1.2 9.0 101.3 11 13
11:00 W 10 gust 12 1.2 8.0 101.2 11 12
10:00 W 8 gust 10 1.4 9.0 101.2 11 12
9:00 NW 6 gust 8 1.4 8.0 101.2 11 12
8:00 NNW 10 gust 14 1.5 9.0 101.1 11 12
7:00 NNW 6 gust 10 1.7 8.0 101.1 11 12
6:00 NNW 14 gust 18 1.7 8.0 101.0 11 12
5:00 NNW 10 gust 14 1.8 8.0 101.0 11 12
4:00 NNW 12 gust 16 1.9 9.0 100.9 11 12
3:00 NNW 12 gust 14 1.9 8.0 100.9 11 12
2:00 NW 12 gust 14 2.0 8.0 100.8 11 12
1:00 NW 12 gust 14 2.3 8.0 100.8 12 12
0:00 WNW 14 gust 18 2.2 9.0 100.8 12 12
30 July 2015
23:00 NW 16 gust 19 2.2 9.0 100.7 12 12
22:00 NW 14 gust 19 2.3 10.0 100.6 12 12

Zoom-in to make a selection

Map of Atlantic - Newfoundland marine weather areas Southwestern Grand Banks - 44138 Banquereau - 44139 Tail of the Bank - 44140 Nickerson Bank - 44251 Northeast Burgeo Bank - 44255 Blanc-Sablon Airport Cap Whittle Chevery Natashquan Airport Heath Point Miscou Island Grand Étang Ingonish Beach North Mountain St.Paul Island J.A. Douglas McCurdy Sydney Airport Charlottetown Airport East Point North Cape Argentia Bonavista Burgeo Cape Race Corner Brook Daniel's Harbour Englee Ferolle Point La Scie Port aux Basques Rocky Harbour Sagona Island St. Anthony Airport St. John's Int'l Airport St. Lawrence Stephenville Airport Twillingate Winterland Wreckhouse Cartwright Airport Mary's Harbour Grates Cove Pool's Island Marticot Island Long Pond Eskasoni (First Nations) Îles de la Madeleine Airport
Legend:
buoy Buoy
land station Land Station

Atlantic - Newfoundland Area

Another Region

What we are doing

Date modified: